Alkabo, North Dakota
Current Conditions -  °F | °C
As of 6:52 PM on Saturday 25 Oct 2014 (Local Time) from KISN Reporting Station
Clear Clear  
Wind Chill: 57°   Ceiling: Unl
Heat Index: 57°   Visibility: 10mi
Dew Point: 31°   Wind: 8mph
Humidity: 37%   Direction: 120°ESE
Pressure: 29.92"   Gusts: NA
Location:  48.5901°N, 103.922°W
Report Text: KISN 252352Z AUTO 12007KT 10SM CLR 14/M01 A2992 RMK AO2 SLP141 T01391006 10178 20139 57025
Loading
Personal Weather Stations






























Interactive Weather Map
Tropical Storm Tracking
New forecast layout! Learn more

10-Day Weather Forecast

Advertisements
Track Severe Weather on mobile